Time;durP1;ratioP1;P1;durP2;ratioP2;P2;SDS_P1;SDS_P2;PMS_P1;PMS_P2;Temp;Humidity;BMP_temperature;BMP_pressure;BME280_temperature;BME280_humidity;BME280_pressure;Samples;Min_cycle;Max_cycle;Signal;HPM_P1;HPM_P2
2020/12/28 00:00:26;;;;;;;1.88;1.05;;;4.60;80.80;;;;;;5032972;28;20041;-46
2020/12/28 00:02:52;;;;;;;1.25;0.90;;;4.60;80.70;;;;;;5034348;28;20366;-49
2020/12/28 00:05:18;;;;;;;3.53;0.93;;;4.60;80.80;;;;;;5033874;28;20083;-46
2020/12/28 00:07:43;;;;;;;2.83;0.98;;;4.60;80.90;;;;;;5034700;28;20374;-44
2020/12/28 00:10:11;;;;;;;1.83;1.00;;;4.60;80.80;;;;;;5033003;28;20034;-45
2020/12/28 00:12:47;;;;;;;2.40;1.05;;;4.60;80.90;;;;;;5033929;28;20529;-46
2020/12/28 00:15:33;;;;;;;2.80;1.52;;;4.60;80.90;;;;;;5034409;28;20482;-47
2020/12/28 00:18:01;;;;;;;2.10;1.02;;;4.70;80.70;;;;;;5033721;28;20037;-44
2020/12/28 00:20:30;;;;;;;0.88;0.80;;;4.60;80.90;;;;;;5016224;28;20484;-47
2020/12/28 00:22:56;;;;;;;1.80;0.93;;;4.70;80.90;;;;;;5046683;28;20441;-46
2020/12/28 00:25:26;;;;;;;3.78;0.93;;;4.70;80.90;;;;;;5053010;28;20052;-46
2020/12/28 00:27:52;;;;;;;3.20;1.10;;;4.70;81.10;;;;;;5054078;28;20025;-46
2020/12/28 00:30:18;;;;;;;3.10;1.17;;;4.70;81.20;;;;;;5053612;28;20040;-44
2020/12/28 00:32:45;;;;;;;1.50;1.10;;;4.70;81.20;;;;;;5054121;28;20025;-46
2020/12/28 00:35:11;;;;;;;1.85;1.27;;;4.70;81.10;;;;;;5053958;28;20530;-46
2020/12/28 00:37:37;;;;;;;4.53;1.30;;;4.70;81.30;;;;;;5053176;28;20409;-45
2020/12/28 00:40:05;;;;;;;3.17;1.52;;;4.70;81.50;;;;;;5053393;28;20041;-44
2020/12/28 00:42:31;;;;;;;1.45;1.00;;;4.80;81.60;;;;;;5034270;28;20048;-45
2020/12/28 00:44:57;;;;;;;1.48;1.20;;;4.80;81.20;;;;;;5032167;28;20128;-45
2020/12/28 00:47:23;;;;;;;1.15;0.90;;;4.80;81.30;;;;;;5033205;28;20553;-44
2020/12/28 00:49:49;;;;;;;1.80;1.10;;;4.80;81.40;;;;;;5033381;28;20152;-44
2020/12/28 00:52:15;;;;;;;2.22;1.10;;;4.80;81.60;;;;;;5033829;28;20033;-45
2020/12/28 00:54:41;;;;;;;1.98;0.93;;;4.80;81.40;;;;;;5033134;28;20040;-46
2020/12/28 00:57:07;;;;;;;1.55;0.93;;;4.90;81.60;;;;;;5049957;28;20116;-47
2020/12/28 00:59:32;;;;;;;2.08;1.02;;;5.00;82.00;;;;;;5033709;28;20443;-48
2020/12/28 01:01:59;;;;;;;2.60;1.00;;;4.90;82.10;;;;;;5032318;28;20056;-45
2020/12/28 01:04:25;;;;;;;1.88;1.25;;;4.90;81.80;;;;;;5033316;28;20068;-46
2020/12/28 01:06:51;;;;;;;1.77;1.00;;;4.90;81.80;;;;;;5031907;28;20393;-47
2020/12/28 01:09:17;;;;;;;3.47;1.30;;;4.90;82.20;;;;;;5033159;28;20044;-45
2020/12/28 01:11:44;;;;;;;1.40;0.98;;;4.90;82.20;;;;;;5033063;28;20029;-45
2020/12/28 01:14:10;;;;;;;2.97;1.30;;;5.00;82.10;;;;;;5032967;28;20091;-46
2020/12/28 01:16:37;;;;;;;2.45;1.00;;;5.00;82.20;;;;;;5051725;28;20037;-43
2020/12/28 01:19:04;;;;;;;1.70;1.10;;;4.90;82.30;;;;;;5053113;28;20144;-45
2020/12/28 01:21:30;;;;;;;1.65;1.20;;;5.00;82.20;;;;;;5050938;28;20551;-44
2020/12/28 01:23:56;;;;;;;3.00;1.10;;;5.00;82.30;;;;;;5052563;28;20039;-47
2020/12/28 01:26:23;;;;;;;2.03;1.30;;;5.00;82.20;;;;;;5052320;28;20056;-45
2020/12/28 01:28:49;;;;;;;2.17;1.10;;;4.90;82.00;;;;;;5052901;28;20469;-50
2020/12/28 01:31:15;;;;;;;1.42;1.02;;;4.90;82.10;;;;;;5052257;28;20041;-46
2020/12/28 01:33:41;;;;;;;1.40;1.10;;;5.00;82.10;;;;;;5032593;28;20060;-44
2020/12/28 01:36:07;;;;;;;2.25;1.17;;;4.90;82.00;;;;;;5032813;28;20069;-46
2020/12/28 01:38:33;;;;;;;4.10;1.20;;;5.00;82.00;;;;;;5031152;28;20044;-47
2020/12/28 01:40:59;;;;;;;1.77;0.95;;;5.00;82.30;;;;;;5032748;28;20084;-45
2020/12/28 01:43:26;;;;;;;2.25;1.48;;;4.90;81.90;;;;;;5032352;28;20532;-45
2020/12/28 01:45:52;;;;;;;1.33;0.95;;;4.90;82.10;;;;;;5031338;28;20370;-45
2020/12/28 01:48:18;;;;;;;1.20;0.82;;;4.90;81.70;;;;;;5032869;28;20094;-46
2020/12/28 01:50:44;;;;;;;1.25;1.15;;;5.00;81.90;;;;;;5042674;28;20029;-45
2020/12/28 01:53:10;;;;;;;4.60;0.90;;;4.90;82.10;;;;;;5032334;28;20103;-46
2020/12/28 01:55:36;;;;;;;1.48;1.05;;;4.90;82.20;;;;;;5039396;28;20029;-46
2020/12/28 01:58:02;;;;;;;4.35;1.52;;;5.00;82.30;;;;;;5032179;28;20052;-45
2020/12/28 02:00:28;;;;;;;1.90;1.25;;;5.00;82.50;;;;;;5031908;28;20029;-46
2020/12/28 02:02:54;;;;;;;2.03;1.20;;;5.00;82.50;;;;;;5032301;28;20168;-44
2020/12/28 02:05:20;;;;;;;3.10;1.42;;;5.00;82.50;;;;;;5032725;28;20034;-48
2020/12/28 02:07:53;;;;;;;0.85;0.82;;;5.00;82.50;;;;;;5031936;28;20064;-46
2020/12/28 02:10:19;;;;;;;2.35;1.17;;;5.00;82.60;;;;;;5032072;28;20033;-46
2020/12/28 02:12:45;;;;;;;1.55;1.10;;;5.00;82.80;;;;;;5030590;28;20041;-45
2020/12/28 02:15:11;;;;;;;6.60;1.52;;;5.00;83.00;;;;;;5032077;28;20041;-47
2020/12/28 02:17:37;;;;;;;4.65;1.30;;;5.00;83.20;;;;;;5031763;28;20482;-46
2020/12/28 02:20:03;;;;;;;1.95;1.40;;;5.00;83.50;;;;;;5046824;28;20571;-47
2020/12/28 02:22:29;;;;;;;1.70;1.35;;;5.10;83.30;;;;;;5050815;28;20029;-45
2020/12/28 02:24:54;;;;;;;3.80;1.90;;;5.00;83.40;;;;;;5052094;28;20044;-46
2020/12/28 02:27:20;;;;;;;3.30;1.40;;;5.00;83.40;;;;;;5051948;28;20032;-49
2020/12/28 02:29:46;;;;;;;2.33;1.40;;;4.90;83.70;;;;;;5051748;28;20075;-44
2020/12/28 02:32:12;;;;;;;3.17;1.38;;;4.90;84.00;;;;;;5052543;28;20033;-47
2020/12/28 02:34:37;;;;;;;2.22;1.20;;;4.80;83.90;;;;;;5053166;28;20028;-49
2020/12/28 02:37:03;;;;;;;2.63;1.38;;;4.70;84.10;;;;;;5055771;28;20397;-45
2020/12/28 02:39:29;;;;;;;2.85;1.20;;;4.70;84.70;;;;;;5053155;28;20067;-46
2020/12/28 02:41:55;;;;;;;2.28;1.33;;;4.70;84.90;;;;;;5034896;28;20036;-47
2020/12/28 02:44:21;;;;;;;2.05;1.20;;;4.70;84.50;;;;;;5035618;28;20120;-45
2020/12/28 02:46:47;;;;;;;1.52;1.13;;;4.70;84.30;;;;;;5034414;28;20040;-46
2020/12/28 02:49:12;;;;;;;3.55;1.50;;;4.70;84.50;;;;;;5035565;28;20037;-43
2020/12/28 02:51:38;;;;;;;1.88;1.20;;;4.70;84.90;;;;;;5040984;28;20021;-47
2020/12/28 02:54:04;;;;;;;2.08;1.20;;;4.70;84.80;;;;;;5055644;28;20503;-45
2020/12/28 02:56:30;;;;;;;2.83;1.30;;;4.70;85.20;;;;;;5045229;28;20092;-45
2020/12/28 02:58:56;;;;;;;4.00;1.52;;;4.80;85.50;;;;;;5054004;28;20044;-44
2020/12/28 03:01:22;;;;;;;1.70;1.23;;;4.70;85.80;;;;;;5055738;28;20381;-45
2020/12/28 03:03:47;;;;;;;4.90;1.38;;;4.80;85.70;;;;;;5053997;28;20037;-43
2020/12/28 03:06:13;;;;;;;1.40;1.30;;;4.80;85.00;;;;;;5055316;28;20067;-45
2020/12/28 03:08:39;;;;;;;1.77;1.27;;;4.80;84.90;;;;;;5055216;28;20465;-45
2020/12/28 03:11:05;;;;;;;2.30;1.38;;;4.70;85.10;;;;;;5037973;28;20032;-44
2020/12/28 03:13:30;;;;;;;2.38;1.20;;;4.70;85.20;;;;;;5035703;28;20389;-46
2020/12/28 03:15:56;;;;;;;1.83;1.35;;;4.70;84.90;;;;;;5035677;28;20545;-46
2020/12/28 03:18:22;;;;;;;1.45;1.08;;;4.70;84.50;;;;;;5035134;28;20033;-45
2020/12/28 03:20:47;;;;;;;1.88;1.58;;;4.70;84.90;;;;;;5035081;28;20057;-46
2020/12/28 03:23:13;;;;;;;1.08;0.95;;;4.70;84.80;;;;;;5049997;28;20401;-44
2020/12/28 03:25:39;;;;;;;1.52;1.30;;;4.70;85.00;;;;;;5054703;28;20044;-45
2020/12/28 03:28:05;;;;;;;1.10;1.00;;;4.80;84.70;;;;;;5054851;28;20489;-45
2020/12/28 03:30:30;;;;;;;2.40;1.30;;;4.80;84.80;;;;;;5053905;28;20026;-46
2020/12/28 03:32:56;;;;;;;2.38;1.45;;;4.70;85.10;;;;;;5053605;28;20036;-45
2020/12/28 03:35:22;;;;;;;2.13;1.10;;;4.70;85.30;;;;;;5053519;28;20063;-46
2020/12/28 03:37:48;;;;;;;1.20;1.05;;;4.70;85.20;;;;;;5054449;28;20409;-44
2020/12/28 03:40:13;;;;;;;2.58;1.40;;;4.70;85.20;;;;;;5045684;28;20021;-45
2020/12/28 03:42:39;;;;;;;1.80;1.23;;;4.70;85.00;;;;;;5034675;28;20044;-46
2020/12/28 03:45:05;;;;;;;1.73;0.95;;;4.70;85.20;;;;;;5034355;28;20029;-45
2020/12/28 03:47:31;;;;;;;2.65;1.42;;;4.70;85.20;;;;;;5033371;28;20415;-44
2020/12/28 03:49:56;;;;;;;3.53;1.40;;;4.60;85.30;;;;;;5034689;28;20022;-46
2020/12/28 03:52:22;;;;;;;3.90;1.38;;;4.70;85.40;;;;;;5034337;28;20504;-45
2020/12/28 03:54:48;;;;;;;1.60;1.15;;;4.70;85.50;;;;;;5034132;28;20049;-46
2020/12/28 03:57:14;;;;;;;1.58;1.30;;;4.70;85.30;;;;;;5051934;28;20528;-44
2020/12/28 03:59:40;;;;;;;1.73;1.30;;;4.70;85.20;;;;;;5053957;28;20397;-46
2020/12/28 04:02:06;;;;;;;1.67;1.40;;;4.70;85.20;;;;;;5054229;28;20033;-44
2020/12/28 04:04:32;;;;;;;1.50;1.40;;;4.70;85.10;;;;;;5052002;28;20120;-44
2020/12/28 04:06:57;;;;;;;1.95;1.30;;;4.70;84.70;;;;;;5033193;28;20481;-45
2020/12/28 04:09:23;;;;;;;1.33;1.10;;;4.70;84.50;;;;;;5034214;28;20068;-47
2020/12/28 04:11:49;;;;;;;1.58;1.20;;;4.70;84.40;;;;;;5034269;28;20025;-45
2020/12/28 04:14:15;;;;;;;2.17;1.40;;;4.60;84.40;;;;;;5034312;28;20108;-48
2020/12/28 04:16:41;;;;;;;1.63;1.48;;;4.70;85.20;;;;;;5033850;28;20045;-45
2020/12/28 04:19:07;;;;;;;2.33;1.35;;;4.60;85.30;;;;;;5037054;28;20057;-46
2020/12/28 04:21:32;;;;;;;3.60;1.50;;;4.60;85.40;;;;;;5044111;28;20028;-44
2020/12/28 04:23:58;;;;;;;2.08;1.10;;;4.60;85.40;;;;;;5053543;28;20041;-45
2020/12/28 04:26:24;;;;;;;2.83;1.40;;;4.60;85.10;;;;;;5052289;28;20051;-48
2020/12/28 04:28:50;;;;;;;2.05;1.08;;;4.60;85.10;;;;;;5053956;28;20524;-49
2020/12/28 04:31:16;;;;;;;1.10;0.85;;;4.60;85.20;;;;;;5053805;28;20064;-45
2020/12/28 04:33:42;;;;;;;1.67;1.10;;;4.70;85.00;;;;;;5053661;28;20116;-45
2020/12/28 04:36:07;;;;;;;1.25;1.08;;;4.70;85.40;;;;;;5053766;28;20485;-45
2020/12/28 04:38:33;;;;;;;2.08;1.00;;;4.70;85.40;;;;;;5052396;28;20034;-46
2020/12/28 04:40:59;;;;;;;1.42;1.10;;;4.70;85.50;;;;;;5053690;28;20111;-45
2020/12/28 04:43:26;;;;;;;1.13;1.00;;;4.80;85.40;;;;;;5053431;28;20040;-44
2020/12/28 04:46:01;;;;;;;1.60;1.10;;;4.80;85.20;;;;;;5051946;28;20382;-44
2020/12/28 04:48:30;;;;;;;1.77;1.30;;;4.80;85.30;;;;;;5053490;28;20132;-46
2020/12/28 04:50:58;;;;;;;1.10;0.88;;;4.80;85.20;;;;;;5053289;28;20055;-45
2020/12/28 04:53:26;;;;;;;1.33;1.23;;;4.70;85.20;;;;;;5053652;28;20033;-47
2020/12/28 04:55:52;;;;;;;1.65;1.00;;;4.80;85.20;;;;;;5046669;28;20041;-44
2020/12/28 04:58:18;;;;;;;2.30;1.00;;;4.70;85.40;;;;;;5033386;28;20128;-45
2020/12/28 05:00:45;;;;;;;2.25;1.13;;;4.80;85.40;;;;;;5031945;28;20366;-48
2020/12/28 05:03:11;;;;;;;1.52;1.20;;;4.80;85.30;;;;;;5032252;28;20474;-44
2020/12/28 05:05:46;;;;;;;1.60;1.20;;;4.70;85.60;;;;;;5031843;28;20481;-44
2020/12/28 05:08:12;;;;;;;1.77;0.95;;;4.60;85.70;;;;;;5033150;28;20033;-45
2020/12/28 05:10:38;;;;;;;1.13;1.02;;;4.40;86.30;;;;;;5032817;28;20029;-44
2020/12/28 05:13:08;;;;;;;2.08;1.25;;;4.40;86.60;;;;;;5039914;28;20106;-44
2020/12/28 05:15:43;;;;;;;2.58;1.02;;;4.40;86.60;;;;;;5052889;28;20481;-45
2020/12/28 05:18:08;;;;;;;1.20;1.15;;;4.40;86.60;;;;;;5053177;28;20041;-45
2020/12/28 05:20:35;;;;;;;1.90;1.40;;;4.50;86.80;;;;;;5052704;28;20079;-46
2020/12/28 05:23:00;;;;;;;1.85;1.10;;;4.60;86.90;;;;;;5052615;28;20040;-44
2020/12/28 05:25:26;;;;;;;1.77;1.30;;;4.60;87.10;;;;;;5053022;28;20033;-45
2020/12/28 05:27:55;;;;;;;4.47;1.60;;;4.70;87.10;;;;;;5052693;28;20039;-45
2020/12/28 05:30:21;;;;;;;1.42;1.10;;;4.70;87.00;;;;;;5050564;28;20036;-45
2020/12/28 05:32:48;;;;;;;1.63;1.52;;;4.70;86.70;;;;;;5052791;28;20078;-46
2020/12/28 05:35:14;;;;;;;1.10;1.00;;;4.70;86.90;;;;;;5052821;28;20417;-45
2020/12/28 05:37:45;;;;;;;2.92;1.40;;;4.70;85.60;;;;;;5052246;28;20040;-46
2020/12/28 05:40:14;;;;;;;2.58;1.30;;;4.70;85.60;;;;;;5052993;28;20128;-45
2020/12/28 05:42:50;;;;;;;2.88;1.30;;;4.70;85.40;;;;;;5052306;28;20060;-45
2020/12/28 05:45:16;;;;;;;13.45;4.75;;;4.70;84.90;;;;;;5052490;28;20539;-44
2020/12/28 05:47:47;;;;;;;10.40;4.00;;;4.60;84.90;;;;;;5039904;28;20030;-45
2020/12/28 05:50:16;;;;;;;2.03;1.20;;;4.60;85.20;;;;;;5032520;28;20030;-46
2020/12/28 05:52:53;;;;;;;2.67;1.08;;;4.60;85.00;;;;;;5032427;28;20053;-44
2020/12/28 05:55:21;;;;;;;2.80;1.13;;;4.60;84.60;;;;;;5034457;28;20121;-44
2020/12/28 05:57:47;;;;;;;1.90;1.33;;;4.60;84.50;;;;;;5052069;28;20044;-44
2020/12/28 06:00:12;;;;;;;3.30;1.10;;;4.50;85.10;;;;;;5052375;28;20090;-45
2020/12/28 06:02:39;;;;;;;1.67;1.10;;;4.50;85.20;;;;;;5051973;28;20029;-47
2020/12/28 06:05:16;;;;;;;9.60;4.15;;;4.50;85.30;;;;;;5049729;28;20033;-44
2020/12/28 06:07:42;;;;;;;2.00;1.48;;;4.50;85.60;;;;;;5052035;28;20358;-44
2020/12/28 06:10:10;;;;;;;3.90;1.27;;;4.50;85.80;;;;;;5052351;28;20044;-49
2020/12/28 06:12:37;;;;;;;2.60;1.35;;;4.50;85.50;;;;;;5052046;28;20493;-44
2020/12/28 06:15:03;;;;;;;2.65;1.40;;;4.60;85.20;;;;;;5033119;28;20057;-45
2020/12/28 06:17:36;;;;;;;1.05;1.00;;;4.60;85.10;;;;;;5031977;28;20044;-47
2020/12/28 06:20:06;;;;;;;2.58;1.10;;;4.60;85.10;;;;;;5032281;28;20067;-45
2020/12/28 06:22:33;;;;;;;2.40;1.33;;;4.60;85.30;;;;;;5040959;28;20029;-44
2020/12/28 06:25:05;;;;;;;2.92;1.92;;;4.50;85.70;;;;;;5052260;28;20029;-44
2020/12/28 06:27:35;;;;;;;5.30;4.22;;;4.60;85.60;;;;;;5052056;28;20476;-44
2020/12/28 06:30:13;;;;;;;3.10;1.98;;;4.60;85.70;;;;;;5052053;28;20025;-43
2020/12/28 06:32:40;;;;;;;2.78;1.63;;;4.60;86.00;;;;;;5051883;28;20056;-45
2020/12/28 06:35:11;;;;;;;12.52;5.38;;;4.70;86.30;;;;;;5050775;28;20086;-47
2020/12/28 06:37:50;;;;;;;4.15;1.67;;;4.70;86.10;;;;;;5051068;28;20132;-45
2020/12/28 06:40:30;;;;;;;1.88;1.40;;;4.70;86.00;;;;;;5050725;28;20119;-46
2020/12/28 06:43:09;;;;;;;3.45;1.50;;;4.70;86.00;;;;;;5050543;28;20393;-46
2020/12/28 06:45:35;;;;;;;1.25;1.15;;;4.70;85.90;;;;;;5051429;28;20064;-45
2020/12/28 06:48:01;;;;;;;3.42;1.45;;;4.70;86.30;;;;;;5050324;28;20061;-45
2020/12/28 06:50:26;;;;;;;1.50;1.08;;;4.70;86.20;;;;;;5037994;28;20077;-46
2020/12/28 06:52:53;;;;;;;1.83;1.27;;;4.70;85.40;;;;;;5051422;28;20086;-44
2020/12/28 06:55:23;;;;;;;1.40;1.15;;;4.70;85.50;;;;;;5048576;28;20466;-49
2020/12/28 06:57:49;;;;;;;2.40;1.50;;;4.70;85.40;;;;;;5031438;28;20405;-46
2020/12/28 07:00:20;;;;;;;2.75;1.30;;;4.70;85.50;;;;;;5031722;28;20108;-44
2020/12/28 07:02:50;;;;;;;1.33;1.02;;;4.70;85.70;;;;;;5031546;28;20440;-46
2020/12/28 07:05:26;;;;;;;3.92;0.98;;;4.80;85.10;;;;;;5031619;28;20026;-45
2020/12/28 07:07:53;;;;;;;1.95;0.88;;;4.80;84.60;;;;;;5031241;28;20103;-43
2020/12/28 07:10:21;;;;;;;1.95;0.82;;;4.90;84.50;;;;;;5031700;28;20021;-47
2020/12/28 07:12:47;;;;;;;0.65;0.65;;;4.90;82.90;;;;;;5031912;28;20029;-44
2020/12/28 07:15:13;;;;;;;1.13;1.00;;;4.70;79.40;;;;;;5035306;28;20025;-46
2020/12/28 07:17:39;;;;;;;1.13;0.82;;;4.60;79.80;;;;;;5049922;28;20052;-43
2020/12/28 07:20:08;;;;;;;1.15;1.10;;;4.60;78.80;;;;;;5053344;28;20406;-47
2020/12/28 07:22:36;;;;;;;1.17;0.95;;;4.40;79.00;;;;;;5055202;28;20028;-44
2020/12/28 07:25:03;;;;;;;0.82;0.73;;;4.40;78.80;;;;;;5054781;28;20039;-47
2020/12/28 07:27:29;;;;;;;2.63;0.90;;;4.30;79.80;;;;;;5044110;28;20033;-43
2020/12/28 07:29:55;;;;;;;1.23;0.90;;;4.30;81.00;;;;;;5040892;28;20367;-45
2020/12/28 07:32:22;;;;;;;1.30;1.00;;;4.40;82.00;;;;;;5035072;28;20030;-45
2020/12/28 07:34:53;;;;;;;1.15;0.90;;;4.50;82.20;;;;;;5034387;28;20045;-45
2020/12/28 07:37:19;;;;;;;0.88;0.80;;;4.60;82.20;;;;;;5035026;28;20122;-45
2020/12/28 07:39:49;;;;;;;1.65;1.02;;;4.60;81.90;;;;;;5034647;28;20421;-44
2020/12/28 07:42:26;;;;;;;1.58;0.95;;;4.70;82.00;;;;;;5035013;28;20030;-44
2020/12/28 07:44:57;;;;;;;2.22;0.90;;;4.70;81.50;;;;;;5034635;28;20520;-44
2020/12/28 07:47:43;;;;;;;3.10;1.25;;;4.80;81.50;;;;;;5035034;28;20063;-45
2020/12/28 07:50:12;;;;;;;2.13;0.70;;;4.90;81.10;;;;;;5033023;28;20037;-48
2020/12/28 07:52:56;;;;;;;2.42;1.05;;;5.00;81.20;;;;;;5034787;28;20486;-46
2020/12/28 07:55:26;;;;;;;2.33;1.00;;;5.10;81.00;;;;;;5036906;28;20029;-44
2020/12/28 07:58:07;;;;;;;0.70;0.70;;;5.10;80.70;;;;;;5054143;28;20032;-46
2020/12/28 08:00:44;;;;;;;0.80;0.75;;;5.20;80.40;;;;;;5054740;28;20392;-46
2020/12/28 08:03:26;;;;;;;0.70;0.50;;;5.20;80.10;;;;;;5046459;28;20551;-46
2020/12/28 08:05:54;;;;;;;1.35;0.90;;;4.90;80.70;;;;;;5034168;28;20119;-46
2020/12/28 08:08:25;;;;;;;0.70;0.70;;;4.70;81.70;;;;;;5033939;28;20552;-46
2020/12/28 08:10:52;;;;;;;3.75;1.63;;;4.70;82.00;;;;;;5034014;28;20076;-45
2020/12/28 08:13:30;;;;;;;1.40;0.90;;;4.60;82.30;;;;;;5034156;28;20057;-45
2020/12/28 08:16:07;;;;;;;2.50;1.30;;;4.60;83.00;;;;;;5034111;28;20583;-46
2020/12/28 08:18:47;;;;;;;0.98;0.85;;;4.70;83.70;;;;;;5033721;28;20171;-47
2020/12/28 08:21:13;;;;;;;2.53;0.98;;;4.70;83.50;;;;;;5050191;28;20086;-45
2020/12/28 08:23:39;;;;;;;2.03;1.45;;;4.80;83.00;;;;;;5054036;28;20037;-47
2020/12/28 08:26:20;;;;;;;0.93;0.90;;;4.90;82.90;;;;;;5053438;28;20025;-45
2020/12/28 08:29:08;;;;;;;3.85;1.20;;;4.90;82.80;;;;;;5053568;28;20033;-46
2020/12/28 08:31:35;;;;;;;1.05;0.93;;;4.90;83.00;;;;;;5052496;28;20428;-46
2020/12/28 08:34:02;;;;;;;1.30;0.90;;;5.00;83.00;;;;;;5053635;28;20064;-45
2020/12/28 08:36:28;;;;;;;0.70;0.70;;;5.00;83.40;;;;;;5052789;28;20521;-44
2020/12/28 08:38:54;;;;;;;0.63;0.63;;;5.20;83.30;;;;;;5053234;28;20037;-48
2020/12/28 08:41:20;;;;;;;0.98;0.60;;;5.40;82.80;;;;;;5053618;28;20473;-45
2020/12/28 08:43:47;;;;;;;1.05;0.50;;;5.50;82.90;;;;;;5053243;28;20033;-44
2020/12/28 08:46:13;;;;;;;2.88;0.30;;;5.60;82.80;;;;;;5045108;28;20018;-48
2020/12/28 08:48:47;;;;;;;0.98;0.50;;;5.60;81.80;;;;;;5033730;28;20033;-44
2020/12/28 08:51:16;;;;;;;0.77;0.30;;;5.60;81.50;;;;;;5033564;28;20029;-48
2020/12/28 08:53:50;;;;;;;1.88;0.50;;;5.60;81.60;;;;;;5033822;28;20034;-45
2020/12/28 08:56:19;;;;;;;0.65;0.45;;;5.70;82.20;;;;;;5042701;28;20029;-45
2020/12/28 08:58:45;;;;;;;0.40;0.40;;;5.70;82.80;;;;;;5053259;28;20124;-50
2020/12/28 09:01:12;;;;;;;1.38;0.50;;;5.70;82.10;;;;;;5053261;28;20029;-45
2020/12/28 09:03:38;;;;;;;3.63;0.55;;;5.80;82.00;;;;;;5052041;28;20067;-47
2020/12/28 09:06:04;;;;;;;0.40;0.40;;;5.80;81.60;;;;;;5052942;28;20032;-45
2020/12/28 09:08:31;;;;;;;0.77;0.50;;;5.90;80.90;;;;;;5053317;28;20041;-47
2020/12/28 09:10:57;;;;;;;1.08;0.60;;;5.90;81.10;;;;;;5046590;28;20385;-44
2020/12/28 09:13:24;;;;;;;0.65;0.45;;;6.10;80.60;;;;;;5033089;28;20037;-46
2020/12/28 09:15:50;;;;;;;1.00;0.50;;;6.10;80.60;;;;;;5032842;28;20056;-46
2020/12/28 09:18:16;;;;;;;0.88;0.50;;;6.20;80.00;;;;;;5046986;28;20045;-45
2020/12/28 09:20:42;;;;;;;0.63;0.63;;;6.30;79.50;;;;;;5040126;28;20064;-47
2020/12/28 09:23:07;;;;;;;0.85;0.73;;;6.30;78.90;;;;;;5052449;28;20032;-46
2020/12/28 09:25:34;;;;;;;2.28;0.90;;;6.30;78.80;;;;;;5041893;28;20037;-47
2020/12/28 09:28:00;;;;;;;1.67;0.82;;;6.40;79.30;;;;;;5031943;28;20037;-47
2020/12/28 09:30:26;;;;;;;1.10;0.70;;;6.40;79.80;;;;;;5032593;28;20455;-49
2020/12/28 09:32:51;;;;;;;1.85;0.63;;;6.30;79.50;;;;;;5032060;28;20056;-45
2020/12/28 09:35:20;;;;;;;1.52;0.80;;;6.40;79.80;;;;;;5032548;28;20036;-45
2020/12/28 09:37:46;;;;;;;3.22;0.80;;;6.40;79.60;;;;;;5030753;28;20033;-46
2020/12/28 09:40:12;;;;;;;2.15;0.93;;;6.40;79.40;;;;;;5032249;28;20041;-49
2020/12/28 09:42:38;;;;;;;1.45;0.90;;;6.40;79.60;;;;;;5030977;28;20398;-46
2020/12/28 09:45:35;;;;;;;2.05;0.95;;;6.50;79.70;;;;;;5033066;28;20041;-45
2020/12/28 09:47:50;;;;;;;;;;;6.70;79.60;;;;;;5033097;28;20060;-47
2020/12/28 09:50:16;;;;;;;4.37;0.83;;;6.70;78.90;;;;;;5052270;28;19955;-47
2020/12/28 09:52:42;;;;;;;2.25;1.20;;;6.90;77.70;;;;;;5052229;28;20545;-47
2020/12/28 09:55:07;;;;;;;0.90;0.77;;;7.10;77.70;;;;;;5052242;28;20025;-46
2020/12/28 09:57:33;;;;;;;1.92;0.88;;;7.40;76.70;;;;;;5050783;28;20037;-44
2020/12/28 09:59:59;;;;;;;3.38;1.00;;;7.70;76.20;;;;;;5052023;28;20071;-44
2020/12/28 10:02:25;;;;;;;1.38;0.70;;;7.70;74.60;;;;;;5042551;28;20514;-47
2020/12/28 10:04:50;;;;;;;1.10;0.68;;;7.50;73.40;;;;;;5031024;28;20164;-45
2020/12/28 10:07:16;;;;;;;1.00;0.80;;;7.20;73.70;;;;;;5032118;28;20033;-45
2020/12/28 10:09:42;;;;;;;0.85;0.63;;;6.90;73.30;;;;;;5031068;28;20065;-45
2020/12/28 10:12:08;;;;;;;3.65;0.60;;;6.70;72.20;;;;;;5032004;28;20036;-45
2020/12/28 10:14:33;;;;;;;2.05;0.50;;;6.60;72.20;;;;;;5032320;28;20061;-44
2020/12/28 10:16:59;;;;;;;0.77;0.52;;;6.50;72.60;;;;;;5031625;28;20428;-48
2020/12/28 10:19:25;;;;;;;1.08;0.60;;;6.50;71.90;;;;;;5041374;28;20493;-45
2020/12/28 10:21:50;;;;;;;3.10;0.98;;;6.40;72.10;;;;;;5051731;28;20025;-47
2020/12/28 10:24:16;;;;;;;1.10;0.60;;;6.30;72.00;;;;;;5052165;28;20116;-46
2020/12/28 10:26:42;;;;;;;1.55;0.75;;;6.20;72.30;;;;;;5050512;28;20047;-45
2020/12/28 10:29:08;;;;;;;2.42;0.90;;;6.10;72.00;;;;;;5051705;28;20083;-49
2020/12/28 10:31:33;;;;;;;2.38;0.70;;;6.10;71.40;;;;;;5052049;28;20071;-47
2020/12/28 10:33:59;;;;;;;1.00;0.90;;;6.10;71.70;;;;;;5051710;28;20079;-47
2020/12/28 10:36:28;;;;;;;2.20;0.70;;;6.10;71.80;;;;;;5041928;28;20394;-46
2020/12/28 10:38:57;;;;;;;1.55;0.70;;;6.20;71.60;;;;;;5031484;28;20401;-45
2020/12/28 10:41:27;;;;;;;2.33;0.80;;;6.30;72.50;;;;;;5032277;28;20389;-46
2020/12/28 10:43:53;;;;;;;2.95;0.80;;;6.50;72.30;;;;;;5032142;28;20143;-48
2020/12/28 10:46:19;;;;;;;1.40;0.75;;;6.90;72.00;;;;;;5032008;28;20124;-49
2020/12/28 10:48:45;;;;;;;2.15;1.73;;;7.20;71.10;;;;;;5039737;28;20099;-46
2020/12/28 10:51:11;;;;;;;6.43;2.10;;;7.40;70.80;;;;;;5051495;28;20061;-47
2020/12/28 10:53:38;;;;;;;2.75;1.35;;;7.50;70.60;;;;;;5040294;28;20474;-46
2020/12/28 10:56:05;;;;;;;2.70;1.02;;;7.50;69.90;;;;;;5042773;28;20075;-49
2020/12/28 10:58:31;;;;;;;1.80;0.93;;;7.50;69.90;;;;;;5055410;28;20408;-47
2020/12/28 11:00:57;;;;;;;3.00;1.20;;;7.40;67.70;;;;;;5055177;28;20036;-45
2020/12/28 11:03:23;;;;;;;0.73;0.70;;;7.20;68.10;;;;;;5055354;28;20035;-46
2020/12/28 11:05:48;;;;;;;2.60;1.48;;;7.10;68.60;;;;;;5055310;28;20032;-47
2020/12/28 11:08:14;;;;;;;2.80;1.55;;;7.00;69.30;;;;;;5053978;28;20111;-48
2020/12/28 11:10:41;;;;;;;0.95;0.90;;;6.90;70.40;;;;;;5043326;28;20033;-47
2020/12/28 11:13:07;;;;;;;5.15;1.30;;;6.70;68.70;;;;;;5035397;28;20064;-45
2020/12/28 11:15:33;;;;;;;3.42;0.70;;;6.70;67.30;;;;;;5034170;28;20513;-46
2020/12/28 11:17:59;;;;;;;1.15;0.63;;;6.60;65.10;;;;;;5034929;28;20037;-48
2020/12/28 11:20:25;;;;;;;1.13;0.80;;;6.40;65.60;;;;;;5034902;28;20135;-45
2020/12/28 11:22:51;;;;;;;1.60;0.70;;;6.30;67.40;;;;;;5046701;28;20116;-47
2020/12/28 11:25:17;;;;;;;2.05;0.70;;;6.20;68.40;;;;;;5055590;28;20032;-46
2020/12/28 11:27:43;;;;;;;1.70;0.43;;;6.30;68.70;;;;;;5054257;28;20504;-44
2020/12/28 11:30:09;;;;;;;0.30;0.30;;;6.30;68.50;;;;;;5054839;28;20064;-51
2020/12/28 11:32:35;;;;;;;1.33;0.60;;;6.40;68.40;;;;;;5055075;28;20037;-47
2020/12/28 11:35:00;;;;;;;2.72;1.15;;;6.50;67.50;;;;;;5054420;28;20127;-47
2020/12/28 11:37:27;;;;;;;2.00;0.65;;;6.50;67.90;;;;;;5054536;28;20044;-46
2020/12/28 11:39:52;;;;;;;1.48;0.90;;;6.40;67.90;;;;;;5054733;28;20435;-50
2020/12/28 11:42:18;;;;;;;2.17;0.70;;;6.40;68.80;;;;;;5053692;28;20079;-49
2020/12/28 11:44:46;;;;;;;3.17;0.50;;;6.30;70.10;;;;;;5053845;28;20043;-47
2020/12/28 11:47:12;;;;;;;1.58;0.50;;;6.00;71.70;;;;;;5054351;28;20485;-46
2020/12/28 11:49:37;;;;;;;2.00;0.82;;;5.70;73.40;;;;;;5045435;28;20170;-44
2020/12/28 11:52:03;;;;;;;0.63;0.50;;;5.40;74.80;;;;;;5038831;28;20390;-46
2020/12/28 11:54:29;;;;;;;2.83;1.00;;;5.10;76.10;;;;;;5034795;28;20434;-48
2020/12/28 11:56:55;;;;;;;1.52;1.00;;;4.90;76.80;;;;;;5038113;28;20038;-46
2020/12/28 11:59:20;;;;;;;1.23;0.85;;;4.80;77.60;;;;;;5034557;28;20448;-49
2020/12/28 12:01:49;;;;;;;1.30;0.57;;;4.60;78.40;;;;;;5033719;28;20120;-46
2020/12/28 12:04:15;;;;;;;1.65;0.77;;;4.40;78.80;;;;;;5033977;28;20500;-49
2020/12/28 12:06:41;;;;;;;1.55;0.80;;;4.30;79.30;;;;;;5033780;28;20034;-48
2020/12/28 12:09:11;;;;;;;0.95;0.60;;;4.30;79.90;;;;;;5034189;28;20083;-46
2020/12/28 12:11:41;;;;;;;1.45;0.80;;;4.40;80.10;;;;;;5033114;28;20026;-46
2020/12/28 12:14:07;;;;;;;1.25;0.80;;;4.60;79.90;;;;;;5033964;28;20040;-48
2020/12/28 12:16:33;;;;;;;7.28;2.85;;;4.90;79.80;;;;;;5034115;28;20029;-46
2020/12/28 12:18:58;;;;;;;5.85;2.92;;;5.20;79.80;;;;;;5034192;28;20076;-47
2020/12/28 12:21:24;;;;;;;1.30;1.20;;;5.50;78.80;;;;;;5034259;28;20345;-45
2020/12/28 12:23:50;;;;;;;1.20;0.75;;;5.70;78.30;;;;;;5034335;28;20040;-46
2020/12/28 12:26:21;;;;;;;4.75;1.73;;;5.90;78.20;;;;;;5033834;28;20040;-47
2020/12/28 12:28:46;;;;;;;3.22;1.17;;;5.90;78.00;;;;;;5034049;28;20112;-47
2020/12/28 12:31:14;;;;;;;4.75;2.10;;;5.90;78.60;;;;;;5033955;28;20160;-46
2020/12/28 12:33:40;;;;;;;2.47;0.90;;;5.90;78.80;;;;;;5034158;28;20542;-44
2020/12/28 12:36:06;;;;;;;0.68;0.63;;;5.90;77.50;;;;;;5048771;28;20040;-45
2020/12/28 12:38:32;;;;;;;0.70;0.45;;;5.80;76.70;;;;;;5053877;28;20102;-45
2020/12/28 12:40:58;;;;;;;1.75;0.80;;;5.80;75.70;;;;;;5053370;28;20435;-46
2020/12/28 12:43:24;;;;;;;1.30;0.95;;;5.90;75.30;;;;;;5052675;28;20127;-45
2020/12/28 12:45:50;;;;;;;6.97;2.42;;;6.00;74.50;;;;;;5053819;28;20041;-45
2020/12/28 12:48:15;;;;;;;0.50;0.50;;;6.20;73.40;;;;;;5053086;28;20734;-46
2020/12/28 12:50:41;;;;;;;2.35;1.20;;;6.30;72.30;;;;;;5046259;28;20546;-46
2020/12/28 12:53:07;;;;;;;1.17;0.70;;;6.50;72.00;;;;;;5033926;28;20041;-44
2020/12/28 12:55:33;;;;;;;3.13;1.58;;;6.70;71.60;;;;;;5037354;28;20104;-44
2020/12/28 12:57:59;;;;;;;1.13;0.88;;;6.90;71.50;;;;;;5053027;28;20369;-46